Time;durP1;ratioP1;P1;durP2;ratioP2;P2;SDS_P1;SDS_P2;PMS_P1;PMS_P2;Temp;Humidity;BMP_temperature;BMP_pressure;BME280_temperature;BME280_humidity;BME280_pressure;Samples;Min_cycle;Max_cycle;Signal;HPM_P1;HPM_P2
2021/10/12 00:00:30;;;;;;;1.33;0.20;;;;;;;;;;4995993;28;20093;-76
2021/10/12 00:02:55;;;;;;;0.80;0.20;;;;;;;;;;4979239;28;20425;-78
2021/10/12 00:05:22;;;;;;;1.48;0.30;;;;;;;;;;4995706;28;20077;-75
2021/10/12 00:08:06;;;;;;;1.58;0.10;;;;;;;;;;4995287;28;20097;-75
2021/10/12 00:10:44;;;;;;;1.20;0.15;;;;;;;;;;4995624;28;20022;-78
2021/10/12 00:13:37;;;;;;;0.30;0.20;;;;;;;;;;5010005;28;20032;-76
2021/10/12 00:16:03;;;;;;;0.98;0.20;;;;;;;;;;5017213;28;20026;-77
2021/10/12 00:18:36;;;;;;;0.63;0.35;;;;;;;;;;5016982;28;20037;-75
2021/10/12 00:21:16;;;;;;;0.90;0.30;;;;;;;;;;5017126;28;20025;-78
2021/10/12 00:27:29;;;;;;;0.50;0.25;;;;;;;;;;4995392;28;20027;-77
2021/10/12 00:30:03;;;;;;;0.10;0.10;;;;;;;;;;4995257;28;20077;-77
2021/10/12 00:32:28;;;;;;;;;;;;;;;;;;4979348;28;20019;-75
2021/10/12 00:35:13;;;;;;;0.40;0.10;;;;;;;;;;4995273;28;19909;-75
2021/10/12 00:37:39;;;;;;;0.80;0.20;;;;;;;;;;5000471;28;20254;-78
2021/10/12 00:43:34;;;;;;;0.17;0.10;;;;;;;;;;4956536;29;20023;-77
2021/10/12 00:46:02;;;;;;;0.63;0.08;;;;;;;;;;4955993;29;20118;-76
2021/10/12 00:51:30;;;;;;;1.33;0.13;;;;;;;;;;4956201;29;20099;-75
2021/10/12 00:54:21;;;;;;;0.30;0.20;;;;;;;;;;4940099;29;20133;-77
2021/10/12 00:57:27;;;;;;;0.80;0.17;;;;;;;;;;4956018;29;20090;-76
2021/10/12 01:00:07;;;;;;;1.45;0.10;;;;;;;;;;4956231;29;20028;-76
2021/10/12 01:02:34;;;;;;;0.85;0.20;;;;;;;;;;4961048;28;20531;-77
2021/10/12 01:04:59;;;;;;;0.47;0.10;;;;;;;;;;4994595;28;20041;-78
2021/10/12 01:07:24;;;;;;;0.22;0.00;;;;;;;;;;4997094;28;20018;-76
2021/10/12 01:09:52;;;;;;;0.10;0.05;;;;;;;;;;5006887;28;20077;-75
2021/10/12 01:12:26;;;;;;;0.30;0.10;;;;;;;;;;4994470;28;20077;-76
2021/10/12 01:15:01;;;;;;;;;;;;;;;;;;4994888;28;20057;-76
2021/10/12 01:17:27;;;;;;;0.10;0.10;;;;;;;;;;4994501;28;19939;-76
2021/10/12 01:19:59;;;;;;;0.30;0.17;;;;;;;;;;5028909;28;20478;-78
2021/10/12 01:22:26;;;;;;;0.35;0.10;;;;;;;;;;5035670;28;20429;-75
2021/10/12 01:28:10;;;;;;;1.65;0.08;;;;;;;;;;5035709;28;20044;-76
2021/10/12 01:30:38;;;;;;;1.08;0.10;;;;;;;;;;5037453;28;20018;-78
2021/10/12 01:33:23;;;;;;;0.60;0.30;;;;;;;;;;5042488;28;20021;-76
2021/10/12 01:35:51;;;;;;;;;;;;;;;;;;5035978;28;20022;-76
2021/10/12 01:38:32;;;;;;;1.52;0.30;;;;;;;;;;5035443;28;20000;-78
2021/10/12 01:41:16;;;;;;;0.25;0.00;;;;;;;;;;5034202;28;20021;-75
2021/10/12 01:44:14;;;;;;;0.30;0.10;;;;;;;;;;5035157;28;20018;-77
2021/10/12 01:49:48;;;;;;;0.52;0.28;;;;;;;;;;5035482;28;20097;-77
2021/10/12 01:52:34;;;;;;;0.10;0.10;;;;;;;;;;5034037;28;20015;-76
2021/10/12 01:55:27;;;;;;;0.00;0.00;;;;;;;;;;5035259;28;20026;-76
2021/10/12 01:57:53;;;;;;;0.10;0.10;;;;;;;;;;5034980;28;20032;-76
2021/10/12 02:00:24;;;;;;;1.25;0.13;;;;;;;;;;5039518;28;20005;-76
2021/10/12 02:02:49;;;;;;;0.13;0.10;;;;;;;;;;5045981;28;20516;-77
2021/10/12 02:05:14;;;;;;;0.30;0.10;;;;;;;;;;5054770;28;20025;-76
2021/10/12 02:07:41;;;;;;;0.10;0.10;;;;;;;;;;5054932;28;20047;-75
2021/10/12 02:10:06;;;;;;;1.03;0.10;;;;;;;;;;5054663;28;20111;-75
2021/10/12 02:12:31;;;;;;;0.75;0.20;;;;;;;;;;5054513;28;20250;-77
2021/10/12 02:15:05;;;;;;;0.05;0.00;;;;;;;;;;5053401;28;20052;-76
2021/10/12 02:18:04;;;;;;;0.10;0.10;;;;;;;;;;5053216;28;20049;-75
2021/10/12 02:20:45;;;;;;;0.43;0.10;;;;;;;;;;4993210;28;20065;-75
2021/10/12 02:23:27;;;;;;;0.55;0.22;;;;;;;;;;4976907;28;20466;-76
2021/10/12 02:25:53;;;;;;;1.65;0.28;;;;;;;;;;4976821;28;20018;-77
2021/10/12 02:28:19;;;;;;;1.02;0.10;;;;;;;;;;4976902;28;20022;-75
2021/10/12 02:30:52;;;;;;;0.43;0.10;;;;;;;;;;4976774;28;20039;-75
2021/10/12 02:33:54;;;;;;;0.75;0.10;;;;;;;;;;4993270;28;20026;-77
2021/10/12 02:36:20;;;;;;;0.57;0.13;;;;;;;;;;4970955;28;20035;-76
2021/10/12 02:42:04;;;;;;;2.00;0.10;;;;;;;;;;4954306;29;20023;-76
2021/10/12 02:44:48;;;;;;;0.57;0.10;;;;;;;;;;4954110;29;20032;-78
2021/10/12 02:47:15;;;;;;;1.27;0.20;;;;;;;;;;4938068;29;20045;-75
2021/10/12 02:50:05;;;;;;;0.22;0.00;;;;;;;;;;4938109;29;20036;-76
2021/10/12 02:52:43;;;;;;;0.45;0.10;;;;;;;;;;4954099;29;20111;-76
2021/10/12 02:55:34;;;;;;;2.08;0.15;;;;;;;;;;4938036;29;20034;-76
2021/10/12 02:58:01;;;;;;;0.52;0.20;;;;;;;;;;4938070;29;20118;-76
2021/10/12 03:00:26;;;;;;;0.20;0.20;;;;;;;;;;4954032;29;20027;-77
2021/10/12 03:02:52;;;;;;;0.22;0.10;;;;;;;;;;4954585;29;20461;-75
2021/10/12 03:05:17;;;;;;;0.57;0.10;;;;;;;;;;4954095;29;20399;-75
2021/10/12 03:07:42;;;;;;;0.20;0.10;;;;;;;;;;4953853;29;20261;-75
2021/10/12 03:10:17;;;;;;;0.43;0.10;;;;;;;;;;4962455;28;20034;-76
2021/10/12 03:12:42;;;;;;;0.80;0.10;;;;;;;;;;4973196;28;20034;-74
2021/10/12 03:15:09;;;;;;;0.10;0.05;;;;;;;;;;4973222;28;20031;-75
2021/10/12 03:17:35;;;;;;;0.30;0.10;;;;;;;;;;5012276;28;20087;-76
2021/10/12 03:20:03;;;;;;;0.43;0.10;;;;;;;;;;5052623;28;20128;-74
2021/10/12 03:22:44;;;;;;;1.13;0.20;;;;;;;;;;5052481;28;20036;-75
2021/10/12 03:25:15;;;;;;;0.05;0.00;;;;;;;;;;5052528;28;20420;-77
2021/10/12 03:28:09;;;;;;;0.88;0.13;;;;;;;;;;5053770;28;20013;-75
2021/10/12 03:30:44;;;;;;;0.30;0.20;;;;;;;;;;5053770;28;20151;-75
2021/10/12 03:33:37;;;;;;;0.65;0.03;;;;;;;;;;5059424;28;20013;-74
2021/10/12 03:36:18;;;;;;;0.32;0.10;;;;;;;;;;4992503;28;20110;-75
2021/10/12 03:38:55;;;;;;;0.10;0.10;;;;;;;;;;4992436;28;20113;-74
2021/10/12 03:41:41;;;;;;;1.02;0.20;;;;;;;;;;4976335;28;20096;-74
2021/10/12 03:44:32;;;;;;;0.20;0.10;;;;;;;;;;4979777;28;20061;-74
2021/10/12 03:46:58;;;;;;;0.65;0.10;;;;;;;;;;4996060;28;20077;-74
2021/10/12 03:49:25;;;;;;;0.43;0.17;;;;;;;;;;4996022;28;20026;-77
2021/10/12 03:52:11;;;;;;;1.15;0.17;;;;;;;;;;4995921;28;20034;-74
2021/10/12 03:54:38;;;;;;;1.55;0.52;;;;;;;;;;4996080;28;20063;-75
2021/10/12 04:00:08;;;;;;;0.20;0.20;;;;;;;;;;4995774;28;20504;-75
2021/10/12 04:02:35;;;;;;;1.42;0.10;;;;;;;;;;5001213;28;20007;-78
2021/10/12 04:05:01;;;;;;;0.57;0.32;;;;;;;;;;4995484;28;20599;-74
2021/10/12 04:07:55;;;;;;;0.10;0.10;;;;;;;;;;4979182;28;20058;-74
2021/10/12 04:10:21;;;;;;;0.63;0.20;;;;;;;;;;4972843;28;20090;-73
2021/10/12 04:12:49;;;;;;;0.30;0.30;;;;;;;;;;4994636;28;20145;-74
2021/10/12 04:15:24;;;;;;;1.10;0.20;;;;;;;;;;4998540;28;20038;-75
2021/10/12 04:18:17;;;;;;;0.60;0.13;;;;;;;;;;4998568;28;20025;-74
2021/10/12 04:21:07;;;;;;;0.77;0.10;;;;;;;;;;4998459;28;20057;-74
2021/10/12 04:23:40;;;;;;;0.15;0.10;;;;;;;;;;5014876;28;20073;-74
2021/10/12 04:26:33;;;;;;;0.17;0.10;;;;;;;;;;5014896;28;20026;-75
2021/10/12 04:29:07;;;;;;;0.10;0.10;;;;;;;;;;5014958;28;20026;-74
2021/10/12 04:31:34;;;;;;;;;;;;;;;;;;5015086;28;20018;-75
2021/10/12 04:34:31;;;;;;;0.60;0.20;;;;;;;;;;5000311;28;19910;-76
2021/10/12 04:36:57;;;;;;;0.47;0.43;;;;;;;;;;4956151;29;20037;-74
2021/10/12 04:39:56;;;;;;;0.22;0.20;;;;;;;;;;4956379;29;20038;-76
2021/10/12 04:42:35;;;;;;;0.22;0.10;;;;;;;;;;4955869;29;20074;-74
2021/10/12 04:45:09;;;;;;;0.88;0.22;;;;;;;;;;4956125;29;20062;-75
2021/10/12 04:47:38;;;;;;;0.20;0.00;;;;;;;;;;4974300;28;20076;-75
2021/10/12 04:50:15;;;;;;;0.47;0.10;;;;;;;;;;5012934;28;20018;-73
2021/10/12 04:53:00;;;;;;;0.75;0.10;;;;;;;;;;5007601;28;20511;-75
2021/10/12 04:55:29;;;;;;;0.22;0.10;;;;;;;;;;4977867;28;20469;-74
2021/10/12 05:00:57;;;;;;;0.40;0.30;;;;;;;;;;4994899;28;20029;-73
2021/10/12 05:03:30;;;;;;;0.88;0.10;;;;;;;;;;4988006;28;20493;-75
2021/10/12 05:05:55;;;;;;;0.47;0.28;;;;;;;;;;4996267;28;20085;-74
2021/10/12 05:08:21;;;;;;;0.10;0.10;;;;;;;;;;4994477;28;20051;-74
2021/10/12 05:11:20;;;;;;;0.75;0.30;;;;;;;;;;4978086;28;20311;-74
2021/10/12 05:13:49;;;;;;;0.38;0.10;;;;;;;;;;5031636;28;20040;-74
2021/10/12 05:16:15;;;;;;;0.10;0.10;;;;;;;;;;5034548;28;20052;-75
2021/10/12 05:19:00;;;;;;;0.43;0.00;;;;;;;;;;5035644;28;20032;-75
2021/10/12 05:21:56;;;;;;;1.10;0.40;;;;;;;;;;5035631;28;20052;-74
2021/10/12 05:24:23;;;;;;;0.13;0.03;;;;;;;;;;4994030;28;20129;-74
2021/10/12 05:30:04;;;;;;;0.70;0.30;;;;;;;;;;4996613;28;20137;-74
2021/10/12 05:32:42;;;;;;;0.38;0.10;;;;;;;;;;5000306;28;20061;-74
2021/10/12 05:35:27;;;;;;;0.45;0.10;;;;;;;;;;4994136;28;20440;-75
2021/10/12 05:38:02;;;;;;;;;;;;;;;;;;4994505;28;20045;-74
2021/10/12 05:43:48;;;;;;;0.30;0.00;;;;;;;;;;4993842;28;20072;-74
2021/10/12 05:46:24;;;;;;;0.05;0.03;;;;;;;;;;4993682;28;20022;-76
2021/10/12 05:48:59;;;;;;;0.60;0.15;;;;;;;;;;4993753;28;20029;-73
2021/10/12 05:51:38;;;;;;;0.43;0.10;;;;;;;;;;4977381;28;20070;-75
2021/10/12 05:57:06;;;;;;;0.22;0.20;;;;;;;;;;4993851;28;20026;-76
2021/10/12 05:59:33;;;;;;;0.75;0.40;;;;;;;;;;4993424;28;20019;-74
2021/10/12 06:02:33;;;;;;;0.10;0.00;;;;;;;;;;5037287;28;20021;-74
2021/10/12 06:04:58;;;;;;;0.22;0.10;;;;;;;;;;5033267;28;20450;-74
2021/10/12 06:07:53;;;;;;;0.10;0.05;;;;;;;;;;5033529;28;20108;-74
2021/10/12 06:10:38;;;;;;;0.00;0.00;;;;;;;;;;5034794;28;20017;-74
2021/10/12 06:13:12;;;;;;;0.45;0.00;;;;;;;;;;5034702;28;20476;-74
2021/10/12 06:15:51;;;;;;;0.25;0.10;;;;;;;;;;5034621;28;20028;-76
2021/10/12 06:18:27;;;;;;;0.13;0.05;;;;;;;;;;5034621;28;20032;-74
2021/10/12 06:21:18;;;;;;;0.00;0.00;;;;;;;;;;5034626;28;20025;-75
2021/10/12 06:23:52;;;;;;;0.00;0.00;;;;;;;;;;5034784;28;20627;-74
2021/10/12 06:26:18;;;;;;;0.68;0.10;;;;;;;;;;5034496;28;20030;-75
2021/10/12 06:28:45;;;;;;;0.08;0.00;;;;;;;;;;5036522;28;20384;-75
2021/10/12 06:31:19;;;;;;;0.47;0.05;;;;;;;;;;5048635;28;20048;-73
2021/10/12 06:33:56;;;;;;;;;;;;;;;;;;5033607;28;20048;-75
2021/10/12 06:36:31;;;;;;;0.60;0.30;;;;;;;;;;5033271;28;19911;-73
2021/10/12 06:41:39;;;;;;;0.30;0.10;;;;;;;;;;5034343;28;20004;-74
2021/10/12 06:44:24;;;;;;;0.10;0.00;;;;;;;;;;5034303;28;20100;-75
2021/10/12 06:49:51;;;;;;;0.17;0.05;;;;;;;;;;5034478;28;20059;-75
2021/10/12 06:52:20;;;;;;;0.30;0.00;;;;;;;;;;5034269;28;20061;-74
2021/10/12 06:54:49;;;;;;;0.13;0.00;;;;;;;;;;5034351;28;20096;-75
2021/10/12 06:57:27;;;;;;;0.43;0.08;;;;;;;;;;5032993;28;20195;-76
2021/10/12 06:59:54;;;;;;;0.63;0.00;;;;;;;;;;5039091;28;20089;-74
2021/10/12 07:02:29;;;;;;;0.10;0.00;;;;;;;;;;5039631;28;20100;-74
2021/10/12 07:04:54;;;;;;;;;;;;;;;;;;5033029;28;20107;-76
2021/10/12 07:07:44;;;;;;;0.30;0.30;;;;;;;;;;5034085;28;19945;-76
2021/10/12 07:10:11;;;;;;;0.68;0.15;;;;;;;;;;5032722;28;20127;-75
2021/10/12 07:12:44;;;;;;;0.17;0.03;;;;;;;;;;5033884;28;20395;-74
2021/10/12 07:15:20;;;;;;;0.22;0.20;;;;;;;;;;5033965;28;20028;-74
2021/10/12 07:17:47;;;;;;;0.47;0.30;;;;;;;;;;5036254;28;20049;-76
2021/10/12 07:20:26;;;;;;;0.00;0.00;;;;;;;;;;5038011;28;20454;-74
2021/10/12 07:26:00;;;;;;;0.10;0.00;;;;;;;;;;5037863;28;20048;-75
2021/10/12 07:28:27;;;;;;;0.22;0.00;;;;;;;;;;5037805;28;20457;-75
2021/10/12 07:31:03;;;;;;;0.93;0.10;;;;;;;;;;5037763;28;20345;-74
2021/10/12 07:33:41;;;;;;;0.10;0.10;;;;;;;;;;5042661;28;20112;-75
2021/10/12 07:36:06;;;;;;;0.65;0.20;;;;;;;;;;5037680;28;20057;-77
2021/10/12 07:38:42;;;;;;;0.32;0.00;;;;;;;;;;5037550;28;20361;-74
2021/10/12 07:44:09;;;;;;;0.55;0.30;;;;;;;;;;5037825;28;20040;-74
2021/10/12 07:49:58;;;;;;;0.65;0.10;;;;;;;;;;5037510;28;20234;-74
2021/10/12 08:01:09;;;;;;;0.30;0.10;;;;;;;;;;5057418;28;20501;-76
2021/10/12 08:03:52;;;;;;;0.10;0.10;;;;;;;;;;5055746;28;20017;-75
2021/10/12 08:06:17;;;;;;;0.13;0.10;;;;;;;;;;5063092;28;20037;-74
2021/10/12 08:08:42;;;;;;;0.60;0.10;;;;;;;;;;5056929;28;20116;-75
2021/10/12 08:11:09;;;;;;;0.38;0.10;;;;;;;;;;5056761;28;20246;-73
2021/10/12 08:13:36;;;;;;;0.10;0.10;;;;;;;;;;5056782;28;20396;-73
2021/10/12 08:16:09;;;;;;;1.67;0.17;;;;;;;;;;5056988;28;20025;-71
2021/10/12 08:18:53;;;;;;;0.35;0.10;;;;;;;;;;5056789;28;20565;-74
2021/10/12 08:21:19;;;;;;;0.00;0.00;;;;;;;;;;5056649;28;20104;-74
2021/10/12 08:23:54;;;;;;;0.10;0.00;;;;;;;;;;5056773;28;20024;-73
2021/10/12 08:26:24;;;;;;;0.17;0.17;;;;;;;;;;5056383;28;20055;-73
2021/10/12 08:28:51;;;;;;;0.57;0.10;;;;;;;;;;5056239;28;20522;-72
2021/10/12 08:31:36;;;;;;;0.10;0.10;;;;;;;;;;5055237;28;20367;-73
2021/10/12 08:34:02;;;;;;;0.25;0.10;;;;;;;;;;5056496;28;20025;-73
2021/10/12 08:36:28;;;;;;;0.00;0.00;;;;;;;;;;5056713;28;20025;-74
2021/10/12 08:39:07;;;;;;;0.10;0.03;;;;;;;;;;5056636;28;20098;-74
2021/10/12 08:42:03;;;;;;;1.80;0.20;;;;;;;;;;5056254;28;20021;-73
2021/10/12 08:44:54;;;;;;;0.00;0.00;;;;;;;;;;4994721;28;20474;-74
2021/10/12 08:47:22;;;;;;;0.08;0.03;;;;;;;;;;4975087;28;20641;-73
2021/10/12 08:49:48;;;;;;;0.32;0.00;;;;;;;;;;4975337;28;20042;-73
2021/10/12 08:52:38;;;;;;;0.47;0.10;;;;;;;;;;4975295;28;20031;-72
2021/10/12 08:55:28;;;;;;;0.08;0.00;;;;;;;;;;4975542;28;20050;-73
2021/10/12 08:58:04;;;;;;;0.60;0.10;;;;;;;;;;4975421;28;20058;-73
2021/10/12 09:00:32;;;;;;;0.65;0.22;;;;;;;;;;4975059;28;20054;-73
2021/10/12 09:02:57;;;;;;;0.75;0.03;;;;;;;;;;4975204;28;20023;-74
2021/10/12 09:05:26;;;;;;;0.30;0.08;;;;;;;;;;4976990;28;20019;-73
2021/10/12 09:08:00;;;;;;;0.25;0.10;;;;;;;;;;4975494;28;20031;-73
2021/10/12 09:10:27;;;;;;;0.13;0.10;;;;;;;;;;4975012;28;20066;-73
2021/10/12 09:12:58;;;;;;;0.45;0.10;;;;;;;;;;4974759;28;20015;-73
2021/10/12 09:15:25;;;;;;;0.47;0.10;;;;;;;;;;4974867;28;20396;-73
2021/10/12 09:17:52;;;;;;;0.17;0.10;;;;;;;;;;4955405;29;20035;-73
2021/10/12 09:20:25;;;;;;;1.30;0.00;;;;;;;;;;4966206;28;20039;-74
2021/10/12 09:23:09;;;;;;;0.63;0.20;;;;;;;;;;4977772;28;20068;-73
2021/10/12 09:25:39;;;;;;;0.22;0.00;;;;;;;;;;5035376;28;20364;-73
2021/10/12 09:28:30;;;;;;;0.35;0.10;;;;;;;;;;5035616;28;20021;-75
2021/10/12 09:30:56;;;;;;;0.60;0.20;;;;;;;;;;5035463;28;20021;-73
2021/10/12 09:33:45;;;;;;;0.20;0.00;;;;;;;;;;5034124;28;20021;-74
2021/10/12 09:36:32;;;;;;;0.73;0.10;;;;;;;;;;5035173;28;20047;-73
2021/10/12 09:38:58;;;;;;;0.65;0.10;;;;;;;;;;4974113;28;20027;-74
2021/10/12 09:41:26;;;;;;;0.03;0.00;;;;;;;;;;4958804;28;20042;-74
2021/10/12 09:43:53;;;;;;;0.03;0.00;;;;;;;;;;4974164;28;20035;-73
2021/10/12 09:46:34;;;;;;;1.02;0.10;;;;;;;;;;4974266;28;20027;-73
2021/10/12 09:49:35;;;;;;;0.57;0.10;;;;;;;;;;4974355;28;20019;-73
2021/10/12 09:52:04;;;;;;;0.52;0.20;;;;;;;;;;4974294;28;20430;-75
2021/10/12 09:54:35;;;;;;;0.65;0.17;;;;;;;;;;4974280;28;20102;-73
2021/10/12 09:57:20;;;;;;;0.08;0.08;;;;;;;;;;4973998;28;20150;-73
2021/10/12 09:59:47;;;;;;;0.57;0.00;;;;;;;;;;4973657;28;20370;-73
2021/10/12 10:02:17;;;;;;;0.35;0.00;;;;;;;;;;4973836;28;20474;-74
2021/10/12 10:04:43;;;;;;;0.80;0.20;;;;;;;;;;4968714;28;20797;-73
2021/10/12 10:07:16;;;;;;;0.00;0.00;;;;;;;;;;4973734;28;20034;-71
2021/10/12 10:09:42;;;;;;;1.58;0.15;;;;;;;;;;4973673;28;20065;-71
2021/10/12 10:12:08;;;;;;;0.30;0.08;;;;;;;;;;4973341;28;20022;-71
2021/10/12 10:14:40;;;;;;;0.20;0.10;;;;;;;;;;4973946;28;20074;-71
2021/10/12 10:17:07;;;;;;;1.52;0.30;;;;;;;;;;5049013;28;20404;-70
2021/10/12 10:19:36;;;;;;;0.10;0.10;;;;;;;;;;5054191;28;20017;-70
2021/10/12 10:22:03;;;;;;;0.30;0.10;;;;;;;;;;5054202;28;20467;-71
2021/10/12 10:24:30;;;;;;;0.10;0.10;;;;;;;;;;5054191;28;20057;-70
2021/10/12 10:26:56;;;;;;;0.20;0.10;;;;;;;;;;5054236;28;20048;-72
2021/10/12 10:29:36;;;;;;;0.30;0.10;;;;;;;;;;5052963;28;20017;-70
2021/10/12 10:32:31;;;;;;;0.10;0.10;;;;;;;;;;5054179;28;20082;-71
2021/10/12 10:35:12;;;;;;;1.65;0.30;;;;;;;;;;5012444;28;20037;-70
2021/10/12 10:37:38;;;;;;;0.10;0.10;;;;;;;;;;5012458;28;20480;-71
2021/10/12 10:40:06;;;;;;;0.30;0.10;;;;;;;;;;5012439;28;20396;-71
2021/10/12 10:42:37;;;;;;;1.10;0.30;;;;;;;;;;5012223;28;20065;-71
2021/10/12 10:45:04;;;;;;;0.10;0.00;;;;;;;;;;5012427;28;20034;-72
2021/10/12 10:47:44;;;;;;;0.40;0.25;;;;;;;;;;5012272;28;20633;-70
2021/10/12 10:50:20;;;;;;;0.65;0.30;;;;;;;;;;5012367;28;20049;-71
2021/10/12 10:52:50;;;;;;;0.22;0.05;;;;;;;;;;5012174;28;20038;-71
2021/10/12 10:55:28;;;;;;;1.00;0.30;;;;;;;;;;5012264;28;20025;-70
2021/10/12 10:58:12;;;;;;;0.17;0.00;;;;;;;;;;5012323;28;20057;-71
2021/10/12 11:00:38;;;;;;;0.10;0.10;;;;;;;;;;5012332;28;20512;-71
2021/10/12 11:03:27;;;;;;;0.22;0.13;;;;;;;;;;5012089;28;20048;-70
2021/10/12 11:05:53;;;;;;;0.22;0.10;;;;;;;;;;5011363;28;20046;-72
2021/10/12 11:08:20;;;;;;;0.28;0.10;;;;;;;;;;5012018;28;20029;-72
2021/10/12 11:10:55;;;;;;;0.95;0.20;;;;;;;;;;5023101;28;20124;-66
2021/10/12 11:13:31;;;;;;;0.28;0.00;;;;;;;;;;5051804;28;20493;-66
2021/10/12 11:15:56;;;;;;;0.63;0.20;;;;;;;;;;5053029;28;20049;-67
2021/10/12 11:18:23;;;;;;;0.70;0.20;;;;;;;;;;5051095;28;20402;-66
2021/10/12 11:20:51;;;;;;;0.45;0.10;;;;;;;;;;5049479;28;20021;-65
2021/10/12 11:23:35;;;;;;;1.00;0.10;;;;;;;;;;5052192;28;20021;-66
2021/10/12 11:26:07;;;;;;;0.93;0.10;;;;;;;;;;5051871;28;20029;-66
2021/10/12 11:28:34;;;;;;;0.22;0.00;;;;;;;;;;5051553;28;20048;-67
2021/10/12 11:31:00;;;;;;;0.15;0.10;;;;;;;;;;5052376;28;20019;-67
2021/10/12 11:33:29;;;;;;;0.77;0.30;;;;;;;;;;5051955;28;20032;-65
2021/10/12 11:35:57;;;;;;;0.95;0.20;;;;;;;;;;5052580;28;20112;-66
2021/10/12 11:38:27;;;;;;;0.38;0.25;;;;;;;;;;5051287;28;20055;-66
2021/10/12 11:40:52;;;;;;;0.32;0.10;;;;;;;;;;5052619;28;20036;-67
2021/10/12 11:43:27;;;;;;;0.47;0.10;;;;;;;;;;5052866;28;20025;-66
2021/10/12 11:46:00;;;;;;;0.00;0.00;;;;;;;;;;5032763;28;20080;-66
2021/10/12 11:48:26;;;;;;;0.30;0.10;;;;;;;;;;5060054;28;20013;-66
2021/10/12 11:50:51;;;;;;;0.10;0.10;;;;;;;;;;5051662;28;20083;-66
2021/10/12 11:53:28;;;;;;;0.10;0.10;;;;;;;;;;5050398;28;20483;-68
2021/10/12 11:56:06;;;;;;;0.68;0.40;;;;;;;;;;5052737;28;20021;-66
2021/10/12 11:58:31;;;;;;;0.93;0.28;;;;;;;;;;5051861;28;20040;-66
2021/10/12 12:00:57;;;;;;;0.20;0.20;;;;;;;;;;5051884;28;20025;-66
2021/10/12 12:03:22;;;;;;;0.20;0.10;;;;;;;;;;5053751;28;20053;-67
2021/10/12 12:05:51;;;;;;;0.10;0.10;;;;;;;;;;5055655;28;20053;-67
2021/10/12 12:08:17;;;;;;;0.50;0.10;;;;;;;;;;5055129;28;20025;-67
2021/10/12 12:10:42;;;;;;;0.88;0.10;;;;;;;;;;5055671;28;20024;-67
2021/10/12 12:13:07;;;;;;;0.00;0.00;;;;;;;;;;5055840;28;20403;-66
2021/10/12 12:15:32;;;;;;;0.00;0.00;;;;;;;;;;5055309;28;20017;-66
2021/10/12 12:18:17;;;;;;;0.70;0.13;;;;;;;;;;5055315;28;20640;-65
2021/10/12 12:20:42;;;;;;;;;;;;;;;;;;5047413;28;20032;-66
2021/10/12 12:23:08;;;;;;;0.47;0.10;;;;;;;;;;5055168;28;19908;-66
2021/10/12 12:25:33;;;;;;;0.10;0.10;;;;;;;;;;5055351;28;20327;-69
2021/10/12 12:27:59;;;;;;;0.10;0.10;;;;;;;;;;5055643;28;20414;-69
2021/10/12 12:30:34;;;;;;;0.32;0.20;;;;;;;;;;5045664;28;20009;-69
2021/10/12 12:32:59;;;;;;;;;;;;;;;;;;5048829;28;20041;-69
2021/10/12 12:35:25;;;;;;;0.40;0.10;;;;;;;;;;5055632;28;19978;-69
2021/10/12 12:38:02;;;;;;;0.80;0.10;;;;;;;;;;5055696;28;20250;-70
2021/10/12 12:40:29;;;;;;;0.28;0.20;;;;;;;;;;5051777;28;20049;-68
2021/10/12 12:42:55;;;;;;;0.13;0.10;;;;;;;;;;5055597;28;20112;-69
2021/10/12 12:45:23;;;;;;;0.52;0.20;;;;;;;;;;5055350;28;20113;-69
2021/10/12 12:47:51;;;;;;;0.10;0.10;;;;;;;;;;5055037;28;20054;-70
2021/10/12 12:50:21;;;;;;;0.73;0.30;;;;;;;;;;5055411;28;20371;-69
2021/10/12 12:52:46;;;;;;;0.63;0.13;;;;;;;;;;5055420;28;20013;-70
2021/10/12 12:55:29;;;;;;;0.20;0.10;;;;;;;;;;5055301;28;20501;-69
2021/10/12 12:57:55;;;;;;;1.10;0.10;;;;;;;;;;5055172;28;20351;-70
2021/10/12 13:00:23;;;;;;;0.63;0.10;;;;;;;;;;5054109;28;20407;-70
2021/10/12 13:02:55;;;;;;;0.63;0.10;;;;;;;;;;5055765;28;20341;-69
2021/10/12 13:05:20;;;;;;;0.40;0.10;;;;;;;;;;5054535;28;20041;-69
2021/10/12 13:07:45;;;;;;;0.45;0.10;;;;;;;;;;5055446;28;20021;-69
2021/10/12 13:10:11;;;;;;;0.05;0.00;;;;;;;;;;5055326;28;20523;-69
2021/10/12 13:12:37;;;;;;;0.57;0.15;;;;;;;;;;5055537;28;20020;-69
2021/10/12 13:15:08;;;;;;;0.08;0.05;;;;;;;;;;5052948;28;20025;-71
2021/10/12 13:17:34;;;;;;;0.00;0.00;;;;;;;;;;5055638;28;20021;-70
2021/10/12 13:20:00;;;;;;;0.25;0.20;;;;;;;;;;5055119;28;20395;-69
2021/10/12 13:22:25;;;;;;;0.05;0.00;;;;;;;;;;5055168;28;20025;-69
2021/10/12 13:24:51;;;;;;;1.05;0.10;;;;;;;;;;5055027;28;20421;-69
2021/10/12 13:27:18;;;;;;;0.15;0.15;;;;;;;;;;5055005;28;20024;-69
2021/10/12 13:29:46;;;;;;;0.10;0.08;;;;;;;;;;5052931;28;20448;-69
2021/10/12 13:32:13;;;;;;;0.20;0.00;;;;;;;;;;5054737;28;20370;-69
2021/10/12 13:34:38;;;;;;;0.00;0.00;;;;;;;;;;5054788;28;20101;-68
2021/10/12 13:37:04;;;;;;;0.47;0.00;;;;;;;;;;5054839;28;20447;-69
2021/10/12 13:39:30;;;;;;;0.32;0.13;;;;;;;;;;5054636;28;20368;-69
2021/10/12 13:41:56;;;;;;;0.00;0.00;;;;;;;;;;5054426;28;20051;-69
2021/10/12 13:44:23;;;;;;;0.10;0.10;;;;;;;;;;5054366;28;20036;-69
2021/10/12 13:46:56;;;;;;;0.22;0.20;;;;;;;;;;5054606;28;20460;-70
2021/10/12 13:49:22;;;;;;;0.57;0.10;;;;;;;;;;5054321;28;20552;-69
2021/10/12 13:51:47;;;;;;;0.20;0.10;;;;;;;;;;5054580;28;20051;-68
2021/10/12 13:54:14;;;;;;;0.10;0.10;;;;;;;;;;5054382;28;20021;-70
2021/10/12 13:56:45;;;;;;;0.38;0.10;;;;;;;;;;5053182;28;20456;-69
2021/10/12 13:59:11;;;;;;;0.70;0.20;;;;;;;;;;5054267;28;20033;-69
2021/10/12 14:01:40;;;;;;;0.17;0.05;;;;;;;;;;5054546;28;20032;-69
2021/10/12 14:04:05;;;;;;;0.32;0.00;;;;;;;;;;5054303;28;20025;-69
2021/10/12 14:06:30;;;;;;;0.85;0.30;;;;;;;;;;5053478;28;20041;-69
2021/10/12 14:09:27;;;;;;;0.93;0.00;;;;;;;;;;5054435;28;20367;-69
2021/10/12 14:11:52;;;;;;;0.90;0.32;;;;;;;;;;5032397;28;20294;-69
2021/10/12 14:14:19;;;;;;;0.20;0.10;;;;;;;;;;5032275;28;20026;-69
2021/10/12 14:16:53;;;;;;;0.63;0.20;;;;;;;;;;5032361;28;20048;-69
2021/10/12 14:19:20;;;;;;;1.23;0.30;;;;;;;;;;5032215;28;20033;-69
2021/10/12 14:21:46;;;;;;;1.02;0.40;;;;;;;;;;5032176;28;20646;-70
2021/10/12 14:24:23;;;;;;;0.20;0.10;;;;;;;;;;5032139;28;20026;-70
2021/10/12 14:26:49;;;;;;;0.30;0.10;;;;;;;;;;5026997;28;20037;-69
2021/10/12 14:29:15;;;;;;;0.88;0.20;;;;;;;;;;5023789;28;20040;-69
2021/10/12 14:31:41;;;;;;;0.20;0.10;;;;;;;;;;5012369;28;20018;-69
2021/10/12 14:34:07;;;;;;;0.20;0.08;;;;;;;;;;5023252;28;20025;-70
2021/10/12 14:36:32;;;;;;;0.55;0.20;;;;;;;;;;5031794;28;20025;-70
2021/10/12 14:38:57;;;;;;;0.90;0.20;;;;;;;;;;5018240;28;20026;-69
2021/10/12 14:41:23;;;;;;;0.60;0.10;;;;;;;;;;5012055;28;20030;-69
2021/10/12 14:43:49;;;;;;;0.75;0.20;;;;;;;;;;5012066;28;20026;-69
2021/10/12 14:46:14;;;;;;;0.47;0.10;;;;;;;;;;5014937;28;20358;-69
2021/10/12 14:48:39;;;;;;;0.23;0.17;;;;;;;;;;5034414;28;20415;-69
2021/10/12 14:51:06;;;;;;;0.93;0.20;;;;;;;;;;5053333;28;20270;-70
2021/10/12 14:53:32;;;;;;;0.65;0.10;;;;;;;;;;5053393;28;20468;-69
2021/10/12 14:55:59;;;;;;;0.10;0.08;;;;;;;;;;5053629;28;20112;-69
2021/10/12 14:58:26;;;;;;;0.45;0.20;;;;;;;;;;5053437;28;20032;-69
2021/10/12 15:00:52;;;;;;;0.43;0.10;;;;;;;;;;5053248;28;20052;-69
2021/10/12 15:03:20;;;;;;;0.15;0.15;;;;;;;;;;5053540;28;20485;-69
2021/10/12 15:05:46;;;;;;;0.35;0.10;;;;;;;;;;5053624;28;20503;-71
2021/10/12 15:08:12;;;;;;;0.65;0.15;;;;;;;;;;5053714;28;20060;-75
2021/10/12 15:10:37;;;;;;;0.80;0.10;;;;;;;;;;5053553;28;20055;-68
2021/10/12 15:13:03;;;;;;;0.00;0.00;;;;;;;;;;5053729;28;20048;-69
2021/10/12 15:15:29;;;;;;;0.10;0.05;;;;;;;;;;5053426;28;20663;-69
2021/10/12 15:17:55;;;;;;;1.02;0.10;;;;;;;;;;5054070;28;20025;-69
2021/10/12 15:20:24;;;;;;;0.45;0.10;;;;;;;;;;5053411;28;20020;-69
2021/10/12 15:22:50;;;;;;;0.00;0.00;;;;;;;;;;5053724;28;20020;-70
2021/10/12 15:25:15;;;;;;;0.40;0.20;;;;;;;;;;5053310;28;20498;-69
2021/10/12 15:27:44;;;;;;;0.00;0.00;;;;;;;;;;5053471;28;20021;-69
2021/10/12 15:30:12;;;;;;;0.90;0.00;;;;;;;;;;5053501;28;20017;-69
2021/10/12 15:32:39;;;;;;;0.55;0.15;;;;;;;;;;5053441;28;20021;-69
2021/10/12 15:35:05;;;;;;;0.15;0.10;;;;;;;;;;5053491;28;20025;-70
2021/10/12 15:37:33;;;;;;;0.93;0.60;;;;;;;;;;5053464;28;20547;-70
2021/10/12 15:39:59;;;;;;;0.52;0.17;;;;;;;;;;5057109;28;20025;-68
2021/10/12 15:42:56;;;;;;;0.40;0.10;;;;;;;;;;5057339;28;20066;-70
2021/10/12 15:45:22;;;;;;;0.10;0.10;;;;;;;;;;5034981;28;20080;-69
2021/10/12 15:47:48;;;;;;;0.45;0.10;;;;;;;;;;5035119;28;20025;-70
2021/10/12 15:50:15;;;;;;;0.10;0.10;;;;;;;;;;5034875;28;20473;-69
2021/10/12 15:52:42;;;;;;;0.20;0.05;;;;;;;;;;5035198;28;20467;-70
2021/10/12 15:55:07;;;;;;;0.85;0.15;;;;;;;;;;5034971;28;20034;-69
2021/10/12 15:57:35;;;;;;;0.98;0.17;;;;;;;;;;5034812;28;20125;-69
2021/10/12 16:00:10;;;;;;;0.22;0.10;;;;;;;;;;5034967;28;20172;-70
2021/10/12 16:02:36;;;;;;;0.08;0.08;;;;;;;;;;5034738;28;20060;-69
2021/10/12 16:05:02;;;;;;;0.65;0.17;;;;;;;;;;5034619;28;20419;-69
2021/10/12 16:07:28;;;;;;;0.30;0.10;;;;;;;;;;5034782;28;20172;-69
2021/10/12 16:10:05;;;;;;;0.23;0.00;;;;;;;;;;5018080;28;20488;-69
2021/10/12 16:12:31;;;;;;;0.50;0.28;;;;;;;;;;5034609;28;20295;-69
2021/10/12 16:23:32;;;;;;;0.08;0.00;;;;;;;;;;5014283;28;20125;-68